createdAt,value
2018-08-20T00:02:25.567Z,8.07
2018-08-20T00:04:55.799Z,8.60
2018-08-20T00:07:26.071Z,8.10
2018-08-20T00:09:56.675Z,7.60
2018-08-20T00:12:26.668Z,8.20
2018-08-20T00:14:56.828Z,9.57
2018-08-20T00:17:26.889Z,7.67
2018-08-20T00:19:56.970Z,8.17
2018-08-20T00:22:26.952Z,7.50
2018-08-20T00:25:15.752Z,7.50
2018-08-20T00:27:47.331Z,8.30
2018-08-20T00:30:19.675Z,8.33
2018-08-20T00:32:50.309Z,7.60
2018-08-20T00:35:20.914Z,7.10
2018-08-20T00:37:52.611Z,7.03
2018-08-20T00:40:22.950Z,7.43
2018-08-20T00:42:53.558Z,8.57
2018-08-20T00:45:23.627Z,7.57
2018-08-20T00:47:53.929Z,8.70
2018-08-20T00:50:24.076Z,7.77
2018-08-20T00:52:54.237Z,7.20
2018-08-20T00:55:24.436Z,7.77
2018-08-20T00:57:54.577Z,7.53
2018-08-20T01:00:24.684Z,7.23
2018-08-20T01:02:54.738Z,7.47
2018-08-20T01:05:24.770Z,7.00
2018-08-20T01:07:54.955Z,7.03
2018-08-20T01:10:25.004Z,7.80
2018-08-20T01:12:55.261Z,7.87
2018-08-20T01:15:25.417Z,6.20
2018-08-20T01:17:55.553Z,6.17
2018-08-20T01:20:25.653Z,7.20
2018-08-20T01:22:55.677Z,6.33
2018-08-20T01:25:25.780Z,7.40
2018-08-20T01:27:55.850Z,7.10
2018-08-20T01:30:25.937Z,7.13
2018-08-20T01:33:16.396Z,7.17
2018-08-20T01:35:46.994Z,6.43
2018-08-20T01:38:17.676Z,6.47
2018-08-20T01:40:48.002Z,7.00
2018-08-20T01:43:19.092Z,7.03
2018-08-20T01:45:49.372Z,7.70
2018-08-20T01:48:19.537Z,6.40
2018-08-20T01:50:49.760Z,7.00
2018-08-20T01:53:20.210Z,6.53
2018-08-20T01:55:50.642Z,7.17
2018-08-20T01:58:21.146Z,7.30
2018-08-20T02:00:51.387Z,6.80
2018-08-20T02:03:21.547Z,8.10
2018-08-20T02:05:51.797Z,7.07
2018-08-20T02:08:22.019Z,7.70
2018-08-20T02:10:52.270Z,7.27
2018-08-20T02:13:23.723Z,7.73
2018-08-20T02:15:53.831Z,6.40
2018-08-20T02:18:24.056Z,7.10
2018-08-20T02:20:54.518Z,7.23
2018-08-20T02:23:24.557Z,6.67
2018-08-20T02:25:54.802Z,6.90
2018-08-20T02:28:24.867Z,7.70
2018-08-20T02:30:54.950Z,7.40
2018-08-20T02:33:25.036Z,7.23
2018-08-20T02:35:55.036Z,7.07
2018-08-20T02:38:25.130Z,6.80
2018-08-20T02:40:55.250Z,7.27
2018-08-20T02:43:25.266Z,7.17
2018-08-20T02:45:55.394Z,7.10
2018-08-20T02:48:25.631Z,8.33
2018-08-20T02:50:55.628Z,7.90
2018-08-20T02:53:25.730Z,7.47
2018-08-20T02:55:56.008Z,7.17
2018-08-20T02:58:26.020Z,7.73
2018-08-20T03:00:56.435Z,7.40
2018-08-20T03:03:26.487Z,7.40
2018-08-20T03:05:56.544Z,8.40
2018-08-20T03:08:26.640Z,7.90
2018-08-20T03:10:56.775Z,8.40
2018-08-20T03:13:26.865Z,7.47
2018-08-20T03:15:56.876Z,8.93
2018-08-20T03:18:26.995Z,7.17
2018-08-20T03:20:57.203Z,7.73
2018-08-20T03:23:27.278Z,7.87
2018-08-20T03:25:57.315Z,8.60
2018-08-20T03:28:27.309Z,8.73
2018-08-20T03:30:57.392Z,7.50
2018-08-20T03:33:27.483Z,8.80
2018-08-20T03:35:57.450Z,8.40
2018-08-20T03:38:27.449Z,8.80
2018-08-20T03:40:57.481Z,8.90
2018-08-20T03:43:27.510Z,8.60
2018-08-20T03:45:57.537Z,8.00
2018-08-20T03:48:27.628Z,8.67
2018-08-20T03:50:57.765Z,8.43
2018-08-20T03:53:27.890Z,8.07
2018-08-20T03:55:57.894Z,8.60
2018-08-20T03:58:28.139Z,8.70
2018-08-20T04:00:58.162Z,8.93
2018-08-20T04:03:28.242Z,8.43
2018-08-20T04:05:58.277Z,9.00
2018-08-20T04:08:28.365Z,7.57
2018-08-20T04:10:58.416Z,8.77
2018-08-20T04:13:28.491Z,9.07
2018-08-20T04:15:58.614Z,8.63
2018-08-20T04:18:28.716Z,8.90
2018-08-20T04:20:58.786Z,8.13
2018-08-20T04:23:28.960Z,8.90
2018-08-20T04:25:59.005Z,8.93
2018-08-20T04:28:29.021Z,9.10
2018-08-20T04:30:59.041Z,8.03
2018-08-20T04:33:29.169Z,9.25
2018-08-20T04:36:00.057Z,8.33
2018-08-20T04:38:30.110Z,9.40
2018-08-20T04:41:00.141Z,8.70
2018-08-20T04:43:30.305Z,8.87
2018-08-20T04:46:00.281Z,8.93
2018-08-20T04:48:30.397Z,9.37
2018-08-20T04:51:00.645Z,9.23
2018-08-20T04:53:30.507Z,9.90
2018-08-20T04:56:00.571Z,9.27
2018-08-20T04:58:30.827Z,10.50
2018-08-20T05:01:00.907Z,10.90
2018-08-20T05:03:31.050Z,9.73
2018-08-20T05:06:01.134Z,9.80
2018-08-20T05:08:31.324Z,10.30
2018-08-20T05:11:01.371Z,9.97
2018-08-20T05:13:31.475Z,9.53
2018-08-20T05:16:01.595Z,10.67
2018-08-20T05:18:31.641Z,10.43
2018-08-20T05:21:01.713Z,9.00
2018-08-20T05:23:31.859Z,10.70
2018-08-20T05:26:01.877Z,9.50
2018-08-20T05:28:32.040Z,9.67
2018-08-20T05:31:02.115Z,10.27
2018-08-20T05:33:32.173Z,9.47
2018-08-20T05:36:02.260Z,9.70
2018-08-20T05:38:32.407Z,10.07
2018-08-20T05:41:02.503Z,10.00
2018-08-20T05:43:32.618Z,8.97
2018-08-20T05:46:02.829Z,9.90
2018-08-20T05:48:33.013Z,9.23
2018-08-20T05:51:03.073Z,9.40
2018-08-20T05:53:33.182Z,9.70
2018-08-20T05:56:03.268Z,9.00
2018-08-20T05:58:33.344Z,9.50
2018-08-20T06:01:03.491Z,10.40
2018-08-20T06:03:33.527Z,9.80
2018-08-20T06:06:03.977Z,9.17
2018-08-20T06:08:34.111Z,9.63
2018-08-20T06:11:04.263Z,10.23
2018-08-20T06:13:34.601Z,10.10
2018-08-20T06:16:04.802Z,11.30
2018-08-20T06:18:34.993Z,9.70
2018-08-20T06:21:05.018Z,10.80
2018-08-20T06:23:35.192Z,12.33
2018-08-20T06:26:05.622Z,10.80
2018-08-20T06:28:35.759Z,10.50
2018-08-20T06:31:06.074Z,10.50
2018-08-20T06:33:36.163Z,10.80
2018-08-20T06:36:06.623Z,10.30
2018-08-20T06:38:36.804Z,11.10
2018-08-20T06:41:07.147Z,10.87
2018-08-20T06:43:37.375Z,10.60
2018-08-20T06:46:07.625Z,11.50
2018-08-20T06:48:37.860Z,11.60
2018-08-20T06:51:08.343Z,10.73
2018-08-20T06:53:38.745Z,11.13
2018-08-20T06:56:09.072Z,9.50
2018-08-20T06:58:39.501Z,10.10
2018-08-20T07:01:10.142Z,10.80
2018-08-20T07:03:40.754Z,9.23
2018-08-20T07:06:11.727Z,10.50
2018-08-20T07:08:42.973Z,11.77
2018-08-20T07:11:13.482Z,10.53
2018-08-20T07:13:44.228Z,10.00
2018-08-20T07:16:14.930Z,10.37
2018-08-20T07:18:46.077Z,10.10
2018-08-20T07:21:16.942Z,10.37
2018-08-20T07:23:48.125Z,9.70
2018-08-20T07:26:18.510Z,9.73
2018-08-20T07:28:48.949Z,9.47
2018-08-20T07:31:19.388Z,9.60
2018-08-20T07:33:49.762Z,10.63
2018-08-20T07:36:20.104Z,8.80
2018-08-20T07:38:50.346Z,9.07
2018-08-20T07:41:20.534Z,9.73
2018-08-20T07:43:50.744Z,8.83
2018-08-20T07:46:21.195Z,9.30
2018-08-20T07:48:51.301Z,8.17
2018-08-20T07:51:21.575Z,8.17
2018-08-20T07:53:52.090Z,8.53
2018-08-20T07:56:22.589Z,8.80
2018-08-20T07:58:52.809Z,8.60
2018-08-20T08:01:22.948Z,8.83
2018-08-20T08:03:53.078Z,7.90
2018-08-20T08:06:23.536Z,7.30
2018-08-20T08:08:53.691Z,8.73
2018-08-20T08:11:23.686Z,9.20
2018-08-20T08:13:54.284Z,9.00
2018-08-20T08:16:24.581Z,8.57
2018-08-20T08:18:54.628Z,8.57
2018-08-20T08:21:24.899Z,8.50
2018-08-20T08:23:54.915Z,8.37
2018-08-20T08:26:25.040Z,7.87
2018-08-20T08:28:55.274Z,8.30
2018-08-20T08:31:25.789Z,7.73
2018-08-20T08:33:55.896Z,7.60
2018-08-20T08:36:26.009Z,7.53
2018-08-20T08:38:56.083Z,8.03
2018-08-20T08:41:26.211Z,7.03
2018-08-20T08:43:56.510Z,6.93
2018-08-20T08:46:26.654Z,6.10
2018-08-20T08:48:56.780Z,7.53
2018-08-20T08:51:27.050Z,8.10
2018-08-20T08:53:57.204Z,7.77
2018-08-20T08:56:27.327Z,6.87
2018-08-20T08:58:57.410Z,6.40
2018-08-20T09:01:27.578Z,4.77
2018-08-20T09:03:57.608Z,3.37
2018-08-20T09:06:27.668Z,3.40
2018-08-20T09:08:57.711Z,4.27
2018-08-20T09:11:27.681Z,4.30
2018-08-20T09:13:57.661Z,3.60
2018-08-20T09:16:27.666Z,4.40
2018-08-20T09:18:57.712Z,4.43
2018-08-20T09:21:27.652Z,4.90
2018-08-20T09:23:57.761Z,4.70
2018-08-20T09:26:27.721Z,5.30
2018-08-20T09:28:57.761Z,5.40
2018-08-20T09:31:27.756Z,6.00
2018-08-20T09:33:57.871Z,5.73
2018-08-20T09:36:27.858Z,5.40
2018-08-20T09:38:57.917Z,5.00
2018-08-20T09:41:27.949Z,4.70
2018-08-20T09:43:58.003Z,5.50
2018-08-20T09:46:27.977Z,5.70
2018-08-20T09:48:57.926Z,5.10
2018-08-20T09:51:27.962Z,5.50
2018-08-20T09:53:57.982Z,4.63
2018-08-20T09:56:28.077Z,4.10
2018-08-20T09:58:58.309Z,4.00
2018-08-20T10:01:28.333Z,4.07
2018-08-20T10:03:58.406Z,3.50
2018-08-20T10:06:28.494Z,3.87
2018-08-20T10:08:58.517Z,4.43
2018-08-20T10:11:28.554Z,3.80
2018-08-20T10:13:58.579Z,3.60
2018-08-20T10:16:28.803Z,3.40
2018-08-20T10:18:58.852Z,4.50
2018-08-20T10:21:28.914Z,3.00
2018-08-20T10:23:59.084Z,3.47
2018-08-20T10:26:29.150Z,3.20
2018-08-20T10:28:59.203Z,3.37
2018-08-20T10:31:29.223Z,3.43
2018-08-20T10:33:59.363Z,4.23
2018-08-20T10:36:29.434Z,3.60
2018-08-20T10:39:00.537Z,3.90
2018-08-20T10:41:30.893Z,4.43
2018-08-20T10:44:00.898Z,3.57
2018-08-20T10:46:30.978Z,3.90
2018-08-20T10:49:00.994Z,3.20
2018-08-20T10:51:31.029Z,3.90
2018-08-20T10:54:01.104Z,3.93
2018-08-20T10:56:31.119Z,4.00
2018-08-20T10:59:01.132Z,3.50
2018-08-20T11:01:31.250Z,3.50
2018-08-20T11:04:01.302Z,4.07
2018-08-20T11:06:31.399Z,4.17
2018-08-20T11:09:01.420Z,3.40
2018-08-20T11:11:31.501Z,4.70
2018-08-20T11:14:01.983Z,3.30
2018-08-20T11:16:32.111Z,3.47
2018-08-20T11:19:02.183Z,3.60
2018-08-20T11:21:32.209Z,3.23
2018-08-20T11:24:02.372Z,4.20
2018-08-20T11:26:32.547Z,4.80
2018-08-20T11:29:02.666Z,3.10
2018-08-20T11:31:32.782Z,2.13
2018-08-20T11:34:02.874Z,2.30
2018-08-20T11:36:32.943Z,2.30
2018-08-20T11:39:03.177Z,2.70
2018-08-20T11:41:33.273Z,3.00
2018-08-20T11:44:03.305Z,2.90
2018-08-20T11:46:33.627Z,2.60
2018-08-20T11:49:03.876Z,2.53
2018-08-20T11:51:33.897Z,2.50
2018-08-20T11:54:04.312Z,2.07
2018-08-20T11:56:34.364Z,2.13
2018-08-20T11:59:04.486Z,2.60
2018-08-20T12:01:34.449Z,1.77
2018-08-20T12:04:04.481Z,1.73
2018-08-20T12:06:34.671Z,1.43
2018-08-20T12:09:06.038Z,1.80
2018-08-20T12:11:36.173Z,1.73
2018-08-20T12:14:06.668Z,1.87
2018-08-20T12:16:37.012Z,2.33
2018-08-20T12:19:07.943Z,1.87
2018-08-20T12:21:38.786Z,1.73
2018-08-20T12:24:09.603Z,2.27
2018-08-20T12:26:41.152Z,2.40
2018-08-20T12:29:12.918Z,1.60
2018-08-20T12:31:43.852Z,1.97
2018-08-20T12:34:15.876Z,2.80
2018-08-20T12:36:47.311Z,1.87
2018-08-20T12:39:18.612Z,1.47
2018-08-20T12:41:49.606Z,2.17
2018-08-20T12:44:20.690Z,1.97
2018-08-20T12:46:51.684Z,2.03
2018-08-20T12:49:22.275Z,2.00
2018-08-20T12:51:53.291Z,1.87
2018-08-20T12:54:23.347Z,1.97
2018-08-20T12:56:53.561Z,1.77
2018-08-20T12:59:23.617Z,1.50
2018-08-20T13:01:54.607Z,1.63
2018-08-20T13:04:25.961Z,1.80
2018-08-20T13:06:57.239Z,2.43
2018-08-20T13:09:27.320Z,2.37
2018-08-20T13:11:57.343Z,1.77
2018-08-20T13:14:27.327Z,1.90
2018-08-20T13:16:57.430Z,1.63
2018-08-20T13:19:28.457Z,2.70
2018-08-20T13:21:58.437Z,1.60
2018-08-20T13:24:28.537Z,2.13
2018-08-20T13:26:58.618Z,2.17
2018-08-20T13:29:28.790Z,2.20
2018-08-20T13:31:58.883Z,2.37
2018-08-20T13:34:28.984Z,2.30
2018-08-20T13:36:59.206Z,1.73
2018-08-20T13:39:29.214Z,2.37
2018-08-20T13:41:59.370Z,2.30
2018-08-20T13:44:29.373Z,2.00
2018-08-20T13:46:59.402Z,2.20
2018-08-20T13:49:29.381Z,2.03
2018-08-20T13:51:59.421Z,2.20
2018-08-20T13:54:29.454Z,1.80
2018-08-20T13:56:59.484Z,1.60
2018-08-20T13:59:29.543Z,1.77
2018-08-20T14:01:59.578Z,1.93
2018-08-20T14:04:29.635Z,1.93
2018-08-20T14:06:59.714Z,1.73
2018-08-20T14:09:29.693Z,2.00
2018-08-20T14:11:59.748Z,1.90
2018-08-20T14:14:29.766Z,2.20
2018-08-20T14:16:59.789Z,1.50
2018-08-20T14:19:29.947Z,1.87
2018-08-20T14:22:00.055Z,1.53
2018-08-20T14:24:30.049Z,1.60
2018-08-20T14:27:00.114Z,1.53
2018-08-20T14:29:30.100Z,1.53
2018-08-20T14:32:00.080Z,1.70
2018-08-20T14:34:30.118Z,1.67
2018-08-20T14:37:00.156Z,1.80
2018-08-20T14:39:30.130Z,1.67
2018-08-20T14:42:00.299Z,1.83
2018-08-20T14:44:30.454Z,1.60
2018-08-20T14:47:00.583Z,1.50
2018-08-20T14:49:30.619Z,1.43
2018-08-20T14:52:01.786Z,1.70
2018-08-20T14:54:31.822Z,1.70
2018-08-20T14:57:01.841Z,1.63
2018-08-20T14:59:31.924Z,1.73
2018-08-20T15:02:01.994Z,1.67
2018-08-20T15:04:32.061Z,2.37
2018-08-20T15:07:09.217Z,1.60
2018-08-20T15:09:40.138Z,2.00
2018-08-20T15:12:12.124Z,1.43
2018-08-20T15:14:42.503Z,1.90
2018-08-20T15:17:13.206Z,1.70
2018-08-20T15:19:43.457Z,1.87
2018-08-20T15:22:13.903Z,2.00
2018-08-20T15:24:45.143Z,1.80
2018-08-20T15:27:16.038Z,2.13
2018-08-20T15:29:47.221Z,1.93
2018-08-20T15:32:17.502Z,2.00
2018-08-20T15:34:48.205Z,2.07
2018-08-20T15:37:18.900Z,2.20
2018-08-20T15:39:49.634Z,2.10
2018-08-20T15:42:20.193Z,2.00
2018-08-20T15:44:51.272Z,2.20
2018-08-20T15:47:21.462Z,2.60
2018-08-20T15:49:51.756Z,2.37
2018-08-20T15:52:22.031Z,2.43
2018-08-20T15:54:52.189Z,2.60
2018-08-20T15:57:22.712Z,2.50
2018-08-20T15:59:52.892Z,3.10
2018-08-20T16:02:23.277Z,2.20
2018-08-20T16:04:53.560Z,3.67
2018-08-20T16:07:23.709Z,2.43
2018-08-20T16:09:53.736Z,2.43
2018-08-20T16:12:23.814Z,2.10
2018-08-20T16:14:53.800Z,2.20
2018-08-20T16:17:23.997Z,2.40
2018-08-20T16:19:54.127Z,2.43
2018-08-20T16:22:24.428Z,1.83
2018-08-20T16:24:54.591Z,2.20
2018-08-20T16:27:24.815Z,2.10
2018-08-20T16:29:54.932Z,2.07
2018-08-20T16:32:24.946Z,2.40
2018-08-20T16:34:54.995Z,2.83
2018-08-20T16:37:25.102Z,2.33
2018-08-20T16:39:55.312Z,2.47
2018-08-20T16:42:25.518Z,2.23
2018-08-20T16:44:55.657Z,2.20
2018-08-20T16:47:26.038Z,2.57
2018-08-20T16:49:56.206Z,2.40
2018-08-20T16:52:26.473Z,2.63
2018-08-20T16:54:56.554Z,2.00
2018-08-20T16:57:26.673Z,2.10
2018-08-20T16:59:56.886Z,2.00
2018-08-20T17:02:29.455Z,2.37
2018-08-20T17:04:59.461Z,2.27
2018-08-20T17:07:29.527Z,2.23
2018-08-20T17:09:59.601Z,2.00
2018-08-20T17:12:29.814Z,1.63
2018-08-20T17:14:59.852Z,2.00
2018-08-20T17:17:30.323Z,1.70
2018-08-20T17:20:00.399Z,2.30
2018-08-20T17:22:30.459Z,2.27
2018-08-20T17:25:00.513Z,2.30
2018-08-20T17:27:30.590Z,2.23
2018-08-20T17:30:00.746Z,2.63
2018-08-20T17:32:31.775Z,2.27
2018-08-20T17:35:01.878Z,2.30
2018-08-20T17:37:32.090Z,2.20
2018-08-20T17:40:06.411Z,1.77
2018-08-20T17:42:36.823Z,1.90
2018-08-20T17:45:09.054Z,2.40
2018-08-20T17:47:40.598Z,2.40
2018-08-20T17:50:29.931Z,2.63
2018-08-20T17:53:00.438Z,2.33
2018-08-20T17:55:30.555Z,2.00
2018-08-20T17:58:00.622Z,2.10
2018-08-20T18:01:05.564Z,2.80
2018-08-20T18:03:36.460Z,2.20
2018-08-20T18:06:07.828Z,2.53
2018-08-20T18:08:38.074Z,2.10
2018-08-20T18:11:11.611Z,2.57
2018-08-20T18:13:46.142Z,2.20
2018-08-20T18:16:17.840Z,2.10
2018-08-20T18:18:50.088Z,2.70
2018-08-20T18:21:20.436Z,2.30
2018-08-20T18:23:50.462Z,3.30
2018-08-20T18:26:20.626Z,2.60
2018-08-20T18:28:54.211Z,2.67
2018-08-20T18:31:26.062Z,2.47
2018-08-20T18:33:56.157Z,2.60
2018-08-20T18:36:29.678Z,2.90
2018-08-20T18:39:08.034Z,2.60
2018-08-20T18:42:15.906Z,2.87
2018-08-20T18:44:47.756Z,2.37
2018-08-20T18:47:18.840Z,2.50
2018-08-20T18:49:58.350Z,2.67
2018-08-20T18:52:29.637Z,3.00
2018-08-20T18:55:00.334Z,2.97
2018-08-20T18:57:33.404Z,2.87
2018-08-20T19:00:05.880Z,3.27
2018-08-20T19:02:39.563Z,3.30
2018-08-20T19:05:12.574Z,2.77
2018-08-20T19:07:43.017Z,2.87
2018-08-20T19:10:26.335Z,2.93
2018-08-20T19:12:56.486Z,2.73
2018-08-20T19:15:39.531Z,3.00
2018-08-20T19:18:13.207Z,2.30
2018-08-20T19:20:43.936Z,3.53
2018-08-20T19:23:14.032Z,3.67
2018-08-20T19:25:44.060Z,3.43
2018-08-20T19:28:16.167Z,2.67
2018-08-20T19:30:46.321Z,3.23
2018-08-20T19:33:20.468Z,2.90
2018-08-20T19:35:50.999Z,2.60
2018-08-20T19:38:21.293Z,3.03
2018-08-20T19:41:03.854Z,2.97
2018-08-20T19:43:49.273Z,3.90
2018-08-20T19:46:30.132Z,2.93
2018-08-20T19:49:05.495Z,3.30
2018-08-20T19:51:37.837Z,3.20
2018-08-20T19:54:09.873Z,3.30
2018-08-20T19:56:40.135Z,3.30
2018-08-20T19:59:16.453Z,2.90
2018-08-20T20:01:47.656Z,2.93
2018-08-20T20:04:18.206Z,2.50
2018-08-20T20:06:48.532Z,2.77
2018-08-20T20:09:18.956Z,3.43
2018-08-20T20:11:50.953Z,2.80
2018-08-20T20:14:21.768Z,3.07
2018-08-20T20:16:53.516Z,3.10
2018-08-20T20:19:23.968Z,2.63
2018-08-20T20:21:54.044Z,2.93
2018-08-20T20:24:24.187Z,2.67
2018-08-20T20:26:54.266Z,2.70
2018-08-20T20:29:24.346Z,2.67
2018-08-20T20:31:54.308Z,3.10
2018-08-20T20:34:24.350Z,2.80
2018-08-20T20:36:54.383Z,2.87
2018-08-20T20:39:24.484Z,2.50
2018-08-20T20:41:54.574Z,2.43
2018-08-20T20:44:24.700Z,2.30
2018-08-20T20:46:54.914Z,2.70
2018-08-20T20:49:24.888Z,2.90
2018-08-20T20:51:55.059Z,2.27
2018-08-20T20:54:25.187Z,2.40
2018-08-20T20:56:55.233Z,2.57
2018-08-20T20:59:25.476Z,2.77
2018-08-20T21:01:55.462Z,2.97
2018-08-20T21:04:25.613Z,2.50
2018-08-20T21:06:55.627Z,2.30
2018-08-20T21:09:26.310Z,2.47
2018-08-20T21:11:56.350Z,2.30
2018-08-20T21:14:26.494Z,2.10
2018-08-20T21:16:56.634Z,2.50
2018-08-20T21:19:26.807Z,2.40
2018-08-20T21:21:56.789Z,2.50
2018-08-20T21:24:26.808Z,2.27
2018-08-20T21:26:56.967Z,2.50
2018-08-20T21:29:27.222Z,1.97
2018-08-20T21:31:57.242Z,2.40
2018-08-20T21:34:31.880Z,2.10
2018-08-20T21:37:02.036Z,1.70
2018-08-20T21:39:32.133Z,2.00
2018-08-20T21:42:02.265Z,1.57
2018-08-20T21:44:32.419Z,1.90
2018-08-20T21:47:33.202Z,1.97
2018-08-20T21:50:03.208Z,1.53
2018-08-20T21:52:33.296Z,1.40
2018-08-20T21:55:03.430Z,1.67
2018-08-20T21:57:33.436Z,1.53
2018-08-20T22:00:13.761Z,1.33
2018-08-20T22:03:15.020Z,1.73
2018-08-20T22:05:46.772Z,1.40
2018-08-20T22:08:17.414Z,1.60
2018-08-20T22:10:48.524Z,1.50
2018-08-20T22:13:19.791Z,1.57
2018-08-20T22:16:13.054Z,1.40
2018-08-20T22:18:46.035Z,1.80
2018-08-20T22:21:19.203Z,1.03
2018-08-20T22:23:49.631Z,2.13
2018-08-20T22:26:21.377Z,1.07
2018-08-20T22:28:52.521Z,1.50
2018-08-20T22:31:23.088Z,1.17
2018-08-20T22:33:59.177Z,1.30
2018-08-20T22:36:30.892Z,1.30
2018-08-20T22:39:02.031Z,1.50
2018-08-20T22:41:32.320Z,1.17
2018-08-20T22:44:02.563Z,1.10
2018-08-20T22:46:32.808Z,1.03
2018-08-20T22:49:02.874Z,1.33
2018-08-20T22:51:32.996Z,1.60
2018-08-20T22:54:03.044Z,1.13
2018-08-20T22:56:34.609Z,2.27
2018-08-20T22:59:07.185Z,1.73
2018-08-20T23:01:37.695Z,1.43
2018-08-20T23:04:08.196Z,1.30
2018-08-20T23:06:38.457Z,1.50
2018-08-20T23:09:26.022Z,1.23
2018-08-20T23:11:56.147Z,1.33
2018-08-20T23:14:26.540Z,1.30
2018-08-20T23:16:56.923Z,1.40
2018-08-20T23:19:29.788Z,1.00
2018-08-20T23:22:00.020Z,1.27
2018-08-20T23:24:30.173Z,1.10
2018-08-20T23:27:00.153Z,1.73
2018-08-20T23:29:30.189Z,1.07
2018-08-20T23:32:00.313Z,1.60
2018-08-20T23:34:30.453Z,1.27
2018-08-20T23:37:00.772Z,0.90
2018-08-20T23:39:30.794Z,1.10
2018-08-20T23:42:00.844Z,1.33
2018-08-20T23:44:31.015Z,1.30
2018-08-20T23:47:01.001Z,1.10
2018-08-20T23:49:31.010Z,0.90
2018-08-20T23:52:01.007Z,1.23
2018-08-20T23:54:31.141Z,1.30
2018-08-20T23:57:01.194Z,1.00
2018-08-20T23:59:31.213Z,1.10
